Buxtehude — V2BY8 — position and weather

sailwx.info

Track history (hours):
 
Tides and Currents Weather Stations Pressure Air Temp Water Temp Dewpoint Dewpoint Depression Visibility Wind Speed Wind Dir Waves Ship Positions

Buxtehude

Last reported at 2018-Feb-25 12:54 UTC. Time now 2018-Feb-25 15:59 UTC.
Position N 37°19' E 015°42'.

Length 134 m; draft 8.1 m.

Type: Ship (hazmat cat A). MMSI: 304962000.

Date/timePositionNaut miles runAvg speedWind from/ knotsBaromVisibWave heightAir tempDewpointWater temp
2018-Feb-25 12:54N 37°19' E 015°42'714.3
2018-Feb-25 12:25N 37°25' E 015°46'614.6
2018-Feb-25 12:00N 37°30' E 015°50'914.6
2018-Feb-25 11:24N 37°37' E 015°56'614.7
2018-Feb-25 11:00N 37°42' E 016°00'7015.0
2018-Feb-25 06:19N 38°37' E 016°56'9915.2
2018-Feb-24 23:50N 39°47' E 018°26'514.7
2018-Feb-24 23:30N 39°51' E 018°29'714.9
2018-Feb-24 23:00N 39°58' E 018°32'37414.8
2018-Feb-23 21:47N 44°41' E 013°00'415.0
2018-Feb-23 21:29N 44°45' E 012°58'715.2
2018-Feb-23 21:00N 44°51' E 012°54'1315.7
2018-Feb-23 20:10N 45°03' E 012°45'316.7
2018-Feb-23 20:00N 45°05' E 012°43'815.5
2018-Feb-23 19:30N 45°10' E 012°35'714.8
2018-Feb-23 19:01N 45°16' E 012°28'713.5
2018-Feb-23 18:30N 45°20' E 012°20'4 8.7
2018-Feb-23 18:00N 45°23' E 012°16'4 8.7
2018-Feb-23 17:30N 45°27' E 012°16'0 0.3
2018-Feb-23 17:00N 45°27' E 012°15'0 0.0
2018-Feb-23 16:29N 45°27' E 012°15'0 0.0
2018-Feb-23 15:59N 45°27' E 012°15'0 0.0
2018-Feb-23 15:29N 45°27' E 012°15'0 0.0
2018-Feb-23 14:59N 45°27' E 012°15'0 0.0
2018-Feb-23 14:28N 45°27' E 012°15'0 0.0
2018-Feb-23 13:58N 45°27' E 012°15'0 0.0
2018-Feb-23 13:28N 45°27' E 012°15'0 0.0
2018-Feb-23 12:58N 45°27' E 012°15'0 0.0
2018-Feb-23 12:28N 45°27' E 012°15'0 0.0
2018-Feb-23 12:00N 45°27' E 012°15'0 0.0
2018-Feb-23 11:30N 45°27' E 012°15'0 0.0
2018-Feb-23 11:00N 45°27' E 012°15'0 0.0
2018-Feb-23 10:30N 45°27' E 012°15'0 0.0
2018-Feb-23 10:00N 45°27' E 012°15'0 0.0
2018-Feb-23 09:29N 45°27' E 012°15'0 0.0
2018-Feb-23 08:59N 45°27' E 012°15'0 0.0
2018-Feb-23 08:29N 45°27' E 012°15'0 0.0
2018-Feb-23 07:59N 45°27' E 012°15'0 0.0
2018-Feb-23 07:28N 45°27' E 012°15'0 0.0
2018-Feb-23 06:58N 45°27' E 012°15'0 0.0
2018-Feb-23 06:28N 45°27' E 012°15'0 0.0
2018-Feb-23 05:58N 45°27' E 012°15'0 0.0
2018-Feb-23 05:31N 45°27' E 012°15'0 0.0
2018-Feb-23 05:00N 45°27' E 012°15'0 0.0
2018-Feb-23 04:27N 45°27' E 012°15'0 0.0
2018-Feb-23 04:00N 45°27' E 012°15'0 0.0
2018-Feb-23 03:30N 45°27' E 012°15'0 0.0
2018-Feb-23 02:59N 45°27' E 012°15'0 0.0
2018-Feb-23 02:29N 45°27' E 012°15'0 0.0
2018-Feb-23 01:56N 45°27' E 012°15'0 0.0
2018-Feb-23 01:29N 45°27' E 012°15'0 0.0
2018-Feb-23 00:59N 45°27' E 012°15'0 0.0
2018-Feb-23 00:28N 45°27' E 012°15'0 0.0
2018-Feb-22 23:58N 45°27' E 012°15'0 0.0
2018-Feb-22 23:28N 45°27' E 012°15'0 0.0
2018-Feb-22 22:58N 45°27' E 012°15'0 0.0
2018-Feb-22 22:28N 45°27' E 012°15'0 0.0
2018-Feb-22 22:00N 45°27' E 012°15'0 0.0
2018-Feb-22 21:30N 45°27' E 012°15'0 0.0
2018-Feb-22 21:00N 45°27' E 012°15'0 0.0
2018-Feb-22 20:30N 45°27' E 012°15'0 0.0
2018-Feb-22 20:00N 45°27' E 012°15'0 0.0
2018-Feb-22 19:29N 45°27' E 012°15'0 0.0
2018-Feb-22 18:59N 45°27' E 012°15'0 0.0
2018-Feb-22 18:29N 45°27' E 012°15'0 0.0
2018-Feb-22 18:00N 45°27' E 012°15'2 3.8
2018-Feb-22 17:30N 45°26' E 012°16'5 9.4
2018-Feb-22 17:00N 45°21' E 012°16'510.4
2018-Feb-22 16:30N 45°19' E 012°23'3 4.7
2018-Feb-22 15:56N 45°22' E 012°24'0 0.0
2018-Feb-22 15:28N 45°22' E 012°24'0 0.0
2018-Feb-22 14:58N 45°22' E 012°24'0 0.0
2018-Feb-22 14:28N 45°22' E 012°24'0 0.0
2018-Feb-22 13:58N 45°22' E 012°24'0 0.0
2018-Feb-22 13:28N 45°22' E 012°24'0 0.0
2018-Feb-22 13:00N 45°22' E 012°24'0 0.0
2018-Feb-22 12:30N 45°22' E 012°24'0 0.0
2018-Feb-22 12:00N 45°22' E 012°24'0 0.0
2018-Feb-22 11:30N 45°22' E 012°24'0 0.0
2018-Feb-22 11:00N 45°22' E 012°24'0 0.0
2018-Feb-22 10:29N 45°22' E 012°24'0 0.0
2018-Feb-22 09:59N 45°22' E 012°24'0 0.0
2018-Feb-22 09:29N 45°22' E 012°24'0 0.0
2018-Feb-22 08:59N 45°22' E 012°24'0 0.0
2018-Feb-22 08:28N 45°22' E 012°24'0 0.0
2018-Feb-22 07:58N 45°22' E 012°24'0 0.0
2018-Feb-22 07:28N 45°22' E 012°24'0 0.0
2018-Feb-22 06:58N 45°22' E 012°24'0 0.0
2018-Feb-22 06:28N 45°22' E 012°24'0 0.0
2018-Feb-22 06:00N 45°22' E 012°24'0 0.0
2018-Feb-22 05:30N 45°22' E 012°24'0 0.0
2018-Feb-22 05:00N 45°22' E 012°24'0 0.0
2018-Feb-22 04:30N 45°22' E 012°24'0 0.0
2018-Feb-22 04:00N 45°22' E 012°24'0 0.0
2018-Feb-22 03:26N 45°22' E 012°24'0 0.0
2018-Feb-22 02:59N 45°22' E 012°24'0 0.0
2018-Feb-22 02:29N 45°22' E 012°24'0 0.0
2018-Feb-22 01:56N 45°22' E 012°24'0 0.0
2018-Feb-22 01:28N 45°22' E 012°24'0 0.0
2018-Feb-22 00:58N 45°22' E 012°24'0 0.0
2018-Feb-22 00:28N 45°22' E 012°24'0 0.0
2018-Feb-21 23:58N 45°22' E 012°24'0 0.0
2018-Feb-21 23:28N 45°22' E 012°24'0 0.0
2018-Feb-21 23:00N 45°22' E 012°24'0 0.0
2018-Feb-21 22:30N 45°22' E 012°24'0 0.0
2018-Feb-21 22:00N 45°22' E 012°24'0 0.0
2018-Feb-21 21:30N 45°22' E 012°24'0 0.0
2018-Feb-21 20:59N 45°22' E 012°24'0 0.0
2018-Feb-21 20:29N 45°22' E 012°24'0 0.0
2018-Feb-21 19:59N 45°22' E 012°24'0 0.1
2018-Feb-21 19:31N 45°22' E 012°24'2 3.5
2018-Feb-21 19:00N 45°21' E 012°26'510.4
2018-Feb-21 18:30N 45°18' E 012°32'612.2
2018-Feb-21 18:00N 45°20' E 012°40'612.4
2018-Feb-21 17:30N 45°23' E 012°48'612.5
2018-Feb-21 17:00N 45°25' E 012°56'612.7
2018-Feb-21 16:30N 45°28' E 013°04'612.8
2018-Feb-21 16:00N 45°31' E 013°12'612.8
2018-Feb-21 15:30N 45°34' E 013°20'612.5
2018-Feb-21 15:00N 45°36' E 013°29'611.7
2018-Feb-21 14:30N 45°37' E 013°37'611.5
2018-Feb-21 14:00N 45°34' E 013°43'1 1.7
2018-Feb-21 13:23N 45°33' E 013°44'0 0.0
2018-Feb-21 12:59N 45°33' E 013°44'0 0.0
2018-Feb-21 12:28N 45°33' E 013°44'0 0.0
2018-Feb-21 11:58N 45°33' E 013°44'0 0.0
2018-Feb-21 11:28N 45°33' E 013°44'0 0.0
2018-Feb-21 10:58N 45°33' E 013°44'0 0.0
2018-Feb-21 10:28N 45°33' E 013°44'0 0.0
2018-Feb-21 10:00N 45°33' E 013°44'0 0.0
2018-Feb-21 09:24N 45°33' E 013°44'0 0.0
2018-Feb-21 09:00N 45°33' E 013°44'0 0.0
2018-Feb-21 08:30N 45°33' E 013°44'0 0.0
2018-Feb-21 07:56N 45°33' E 013°44'0 0.0
2018-Feb-21 07:29N 45°33' E 013°44'0 0.0
2018-Feb-21 06:59N 45°33' E 013°44'0 0.0
2018-Feb-21 06:29N 45°33' E 013°44'0 0.0
2018-Feb-21 05:59N 45°33' E 013°44'0 0.0
2018-Feb-21 05:28N 45°33' E 013°44'0 0.0
2018-Feb-21 04:55N 45°33' E 013°44'0 0.0
2018-Feb-21 04:28N 45°33' E 013°44'0 0.0
2018-Feb-21 03:58N 45°33' E 013°44'0 0.0
2018-Feb-21 03:28N 45°33' E 013°44'0 0.0
2018-Feb-21 02:58N 45°33' E 013°44'0 0.0
2018-Feb-21 02:25N 45°33' E 013°44'0 0.0
2018-Feb-21 01:58N 45°33' E 013°44'0 0.0
2018-Feb-21 01:28N 45°33' E 013°44'0 0.0
2018-Feb-21 00:57N 45°33' E 013°44'0 0.0
2018-Feb-21 00:30N 45°33' E 013°44'0 0.0
2018-Feb-21 00:00N 45°33' E 013°44'0 0.0
2018-Feb-20 23:27N 45°33' E 013°44'0 0.0
2018-Feb-20 23:00N 45°33' E 013°44'0 0.0
2018-Feb-20 22:29N 45°33' E 013°44'0 0.0
2018-Feb-20 21:59N 45°33' E 013°44'0 0.0
2018-Feb-20 21:29N 45°33' E 013°44'0 0.0
2018-Feb-20 20:59N 45°33' E 013°44'0 0.0
2018-Feb-20 20:30N 45°33' E 013°44'2 4.4
2018-Feb-20 20:00N 45°34' E 013°41'714.0
2018-Feb-20 19:30N 45°34' E 013°31'815.3
2018-Feb-20 19:00N 45°30' E 013°22'714.3
2018-Feb-20 18:30N 45°25' E 013°15'713.1
2018-Feb-20 18:00N 45°19' E 013°11'714.5
2018-Feb-20 17:30N 45°12' E 013°14'714.8
2018-Feb-20 17:00N 45°06' E 013°18'714.3
2018-Feb-20 16:31N 44°59' E 013°22'714.3
2018-Feb-20 16:01N 44°54' E 013°29'714.7
2018-Feb-20 15:30N 44°49' E 013°37'714.6
2018-Feb-20 15:00N 44°45' E 013°45'712.0
2018-Feb-20 14:23N 44°42' E 013°55'512.7
2018-Feb-20 14:00N 44°43' E 014°01'611.5
2018-Feb-20 13:30N 44°47' E 014°07'912.9
2018-Feb-20 12:48N 44°56' E 014°12'1713.1
2018-Feb-20 11:32N 45°12' E 014°18'23 1.2
2018-Feb-19 16:48N 44°50' E 014°08'413.8
2018-Feb-19 16:30N 44°46' E 014°06'713.4
2018-Feb-19 15:59N 44°39' E 014°03'613.4
2018-Feb-19 15:30N 44°33' E 014°03'33913.3
2018-Feb-18 14:04N 39°59' E 018°31'112.6
2018-Feb-18 14:00N 39°58' E 018°31'612.7
2018-Feb-18 13:30N 39°52' E 018°28'10313.4
2018-Feb-18 05:49N 38°38' E 016°55'6613.5
2018-Feb-18 00:57N 37°47' E 016°02'714.2
2018-Feb-18 00:28N 37°41' E 015°57'814.3
2018-Feb-17 23:54N 37°34' E 015°52'513.7
2018-Feb-17 23:30N 37°29' E 015°49'713.6
2018-Feb-17 23:00N 37°23' E 015°45'9313.7
2018-Feb-17 16:11N 36°03' E 014°45'313.6
2018-Feb-17 15:59N 36°01' E 014°43'713.9
2018-Feb-17 15:29N 35°55' E 014°39'812.6
2018-Feb-17 14:53N 35°48' E 014°34'1 0.0
2018-Feb-16 18:06N 35°49' E 014°34'1 6.9
2018-Feb-16 17:59N 35°48' E 014°34'0 0.4
2018-Feb-16 17:26N 35°48' E 014°35'2 4.7
2018-Feb-16 17:00N 35°47' E 014°37'1 1.5
2018-Feb-16 16:24N 35°48' E 014°36'0 0.4
2018-Feb-16 16:00N 35°48' E 014°36'1 1.2
2018-Feb-16 15:22N 35°48' E 014°37'2 6.5
2018-Feb-16 15:00N 35°49' E 014°40'5 9.4
2018-Feb-16 14:30N 35°50' E 014°45'0 0.0
2018-Feb-16 05:22N 35°50' E 014°45'0 0.0
2018-Feb-16 04:45N 35°50' E 014°45'0 0.0
2018-Feb-16 04:03N 35°50' E 014°45'0 0.0
2018-Feb-16 03:39N 35°50' E 014°45'0 0.0
2018-Feb-16 03:27N 35°50' E 014°45'0 0.0
2018-Feb-16 02:51N 35°50' E 014°45'0 0.0
2018-Feb-16 02:26N 35°50' E 014°45'0 0.0
2018-Feb-16 01:56N 35°50' E 014°45'0 0.1
2018-Feb-16 01:29N 35°50' E 014°45'0 0.0
2018-Feb-16 00:44N 35°50' E 014°45'0 0.0
2018-Feb-16 00:26N 35°50' E 014°45'0 0.0
2018-Feb-15 23:58N 35°50' E 014°45'0 0.0
2018-Feb-15 23:26N 35°50' E 014°45'0 0.0
2018-Feb-15 21:46N 35°50' E 014°45'0 0.0
2018-Feb-15 21:18N 35°50' E 014°45'0 0.1
2018-Feb-15 21:00N 35°50' E 014°45'0 0.0
2018-Feb-15 20:00N 35°50' E 014°46'0 0.0
2018-Feb-15 19:24N 35°50' E 014°45'0 0.0
2018-Feb-15 18:59N 35°50' E 014°45'0 0.0
2018-Feb-15 17:35N 35°50' E 014°45'0 0.0
2018-Feb-15 17:23N 35°50' E 014°45'0 0.0
2018-Feb-15 16:50N 35°50' E 014°46'0 0.0
2018-Feb-15 16:22N 35°50' E 014°46'0 0.0
2018-Feb-15 15:58N 35°50' E 014°46'0 0.0
2018-Feb-15 15:28N 35°50' E 014°46'0 0.0
2018-Feb-15 14:52N 35°50' E 014°46'0 0.0
2018-Feb-15 14:25N 35°50' E 014°46'0 0.0
2018-Feb-15 13:51N 35°50' E 014°46'0 0.1
2018-Feb-15 13:27N 35°50' E 014°45'0 0.0
2018-Feb-15 12:57N 35°50' E 014°45'  
Track history (hours):
 
Tides and Currents Weather Stations Pressure Air Temp Water Temp Dewpoint Dewpoint Depression Visibility Wind Speed Wind Dir Waves Ship Positions

Buxtehude

Last reported at 2018-Feb-25 12:54 UTC. Time now 2018-Feb-25 15:59 UTC.
Position N 37°19' E 015°42'.

Length 134 m; draft 8.1 m.

Type: Ship (hazmat cat A). MMSI: 304962000.

Date/timePositionNaut miles runAvg speedWind from/ knotsBaromVisibWave heightAir tempDewpointWater temp
2018-Feb-25 12:54N 37°19' E 015°42'714.3
2018-Feb-25 12:25N 37°25' E 015°46'614.6
2018-Feb-25 12:00N 37°30' E 015°50'914.6
2018-Feb-25 11:24N 37°37' E 015°56'614.7
2018-Feb-25 11:00N 37°42' E 016°00'7015.0
2018-Feb-25 06:19N 38°37' E 016°56'9915.2
2018-Feb-24 23:50N 39°47' E 018°26'514.7
2018-Feb-24 23:30N 39°51' E 018°29'714.9
2018-Feb-24 23:00N 39°58' E 018°32'37414.8
2018-Feb-23 21:47N 44°41' E 013°00'415.0
2018-Feb-23 21:29N 44°45' E 012°58'715.2
2018-Feb-23 21:00N 44°51' E 012°54'1315.7
2018-Feb-23 20:10N 45°03' E 012°45'316.7
2018-Feb-23 20:00N 45°05' E 012°43'815.5
2018-Feb-23 19:30N 45°10' E 012°35'714.8
2018-Feb-23 19:01N 45°16' E 012°28'713.5
2018-Feb-23 18:30N 45°20' E 012°20'4 8.7
2018-Feb-23 18:00N 45°23' E 012°16'4 8.7
2018-Feb-23 17:30N 45°27' E 012°16'0 0.3
2018-Feb-23 17:00N 45°27' E 012°15'0 0.0
2018-Feb-23 16:29N 45°27' E 012°15'0 0.0
2018-Feb-23 15:59N 45°27' E 012°15'0 0.0
2018-Feb-23 15:29N 45°27' E 012°15'0 0.0
2018-Feb-23 14:59N 45°27' E 012°15'0 0.0
2018-Feb-23 14:28N 45°27' E 012°15'0 0.0
2018-Feb-23 13:58N 45°27' E 012°15'0 0.0
2018-Feb-23 13:28N 45°27' E 012°15'0 0.0
2018-Feb-23 12:58N 45°27' E 012°15'0 0.0
2018-Feb-23 12:28N 45°27' E 012°15'0 0.0
2018-Feb-23 12:00N 45°27' E 012°15'0 0.0
2018-Feb-23 11:30N 45°27' E 012°15'0 0.0
2018-Feb-23 11:00N 45°27' E 012°15'0 0.0
2018-Feb-23 10:30N 45°27' E 012°15'0 0.0
2018-Feb-23 10:00N 45°27' E 012°15'0 0.0
2018-Feb-23 09:29N 45°27' E 012°15'0 0.0
2018-Feb-23 08:59N 45°27' E 012°15'0 0.0
2018-Feb-23 08:29N 45°27' E 012°15'0 0.0
2018-Feb-23 07:59N 45°27' E 012°15'0 0.0
2018-Feb-23 07:28N 45°27' E 012°15'0 0.0
2018-Feb-23 06:58N 45°27' E 012°15'0 0.0
2018-Feb-23 06:28N 45°27' E 012°15'0 0.0
2018-Feb-23 05:58N 45°27' E 012°15'0 0.0
2018-Feb-23 05:31N 45°27' E 012°15'0 0.0
2018-Feb-23 05:00N 45°27' E 012°15'0 0.0
2018-Feb-23 04:27N 45°27' E 012°15'0 0.0
2018-Feb-23 04:00N 45°27' E 012°15'0 0.0
2018-Feb-23 03:30N 45°27' E 012°15'0 0.0
2018-Feb-23 02:59N 45°27' E 012°15'0 0.0
2018-Feb-23 02:29N 45°27' E 012°15'0 0.0
2018-Feb-23 01:56N 45°27' E 012°15'0 0.0
2018-Feb-23 01:29N 45°27' E 012°15'0 0.0
2018-Feb-23 00:59N 45°27' E 012°15'0 0.0
2018-Feb-23 00:28N 45°27' E 012°15'0 0.0
2018-Feb-22 23:58N 45°27' E 012°15'0 0.0
2018-Feb-22 23:28N 45°27' E 012°15'0 0.0
2018-Feb-22 22:58N 45°27' E 012°15'0 0.0
2018-Feb-22 22:28N 45°27' E 012°15'0 0.0
2018-Feb-22 22:00N 45°27' E 012°15'0 0.0
2018-Feb-22 21:30N 45°27' E 012°15'0 0.0
2018-Feb-22 21:00N 45°27' E 012°15'0 0.0
2018-Feb-22 20:30N 45°27' E 012°15'0 0.0
2018-Feb-22 20:00N 45°27' E 012°15'0 0.0
2018-Feb-22 19:29N 45°27' E 012°15'0 0.0
2018-Feb-22 18:59N 45°27' E 012°15'0 0.0
2018-Feb-22 18:29N 45°27' E 012°15'0 0.0
2018-Feb-22 18:00N 45°27' E 012°15'2 3.8
2018-Feb-22 17:30N 45°26' E 012°16'5 9.4
2018-Feb-22 17:00N 45°21' E 012°16'510.4
2018-Feb-22 16:30N 45°19' E 012°23'3 4.7
2018-Feb-22 15:56N 45°22' E 012°24'0 0.0
2018-Feb-22 15:28N 45°22' E 012°24'0 0.0
2018-Feb-22 14:58N 45°22' E 012°24'0 0.0
2018-Feb-22 14:28N 45°22' E 012°24'0 0.0
2018-Feb-22 13:58N 45°22' E 012°24'0 0.0
2018-Feb-22 13:28N 45°22' E 012°24'0 0.0
2018-Feb-22 13:00N 45°22' E 012°24'0 0.0
2018-Feb-22 12:30N 45°22' E 012°24'0 0.0
2018-Feb-22 12:00N 45°22' E 012°24'0 0.0
2018-Feb-22 11:30N 45°22' E 012°24'0 0.0
2018-Feb-22 11:00N 45°22' E 012°24'0 0.0
2018-Feb-22 10:29N 45°22' E 012°24'0 0.0
2018-Feb-22 09:59N 45°22' E 012°24'0 0.0
2018-Feb-22 09:29N 45°22' E 012°24'0 0.0
2018-Feb-22 08:59N 45°22' E 012°24'0 0.0
2018-Feb-22 08:28N 45°22' E 012°24'0 0.0
2018-Feb-22 07:58N 45°22' E 012°24'0 0.0
2018-Feb-22 07:28N 45°22' E 012°24'0 0.0
2018-Feb-22 06:58N 45°22' E 012°24'0 0.0
2018-Feb-22 06:28N 45°22' E 012°24'0 0.0
2018-Feb-22 06:00N 45°22' E 012°24'0 0.0
2018-Feb-22 05:30N 45°22' E 012°24'0 0.0
2018-Feb-22 05:00N 45°22' E 012°24'0 0.0
2018-Feb-22 04:30N 45°22' E 012°24'0 0.0
2018-Feb-22 04:00N 45°22' E 012°24'0 0.0
2018-Feb-22 03:26N 45°22' E 012°24'0 0.0
2018-Feb-22 02:59N 45°22' E 012°24'0 0.0
2018-Feb-22 02:29N 45°22' E 012°24'0 0.0
2018-Feb-22 01:56N 45°22' E 012°24'0 0.0
2018-Feb-22 01:28N 45°22' E 012°24'0 0.0
2018-Feb-22 00:58N 45°22' E 012°24'0 0.0
2018-Feb-22 00:28N 45°22' E 012°24'0 0.0
2018-Feb-21 23:58N 45°22' E 012°24'0 0.0
2018-Feb-21 23:28N 45°22' E 012°24'0 0.0
2018-Feb-21 23:00N 45°22' E 012°24'0 0.0
2018-Feb-21 22:30N 45°22' E 012°24'0 0.0
2018-Feb-21 22:00N 45°22' E 012°24'0 0.0
2018-Feb-21 21:30N 45°22' E 012°24'0 0.0
2018-Feb-21 20:59N 45°22' E 012°24'0 0.0
2018-Feb-21 20:29N 45°22' E 012°24'0 0.0
2018-Feb-21 19:59N 45°22' E 012°24'0 0.1
2018-Feb-21 19:31N 45°22' E 012°24'2 3.5
2018-Feb-21 19:00N 45°21' E 012°26'510.4
2018-Feb-21 18:30N 45°18' E 012°32'612.2
2018-Feb-21 18:00N 45°20' E 012°40'612.4
2018-Feb-21 17:30N 45°23' E 012°48'612.5
2018-Feb-21 17:00N 45°25' E 012°56'612.7
2018-Feb-21 16:30N 45°28' E 013°04'612.8
2018-Feb-21 16:00N 45°31' E 013°12'612.8
2018-Feb-21 15:30N 45°34' E 013°20'612.5
2018-Feb-21 15:00N 45°36' E 013°29'611.7
2018-Feb-21 14:30N 45°37' E 013°37'611.5
2018-Feb-21 14:00N 45°34' E 013°43'1 1.7
2018-Feb-21 13:23N 45°33' E 013°44'0 0.0
2018-Feb-21 12:59N 45°33' E 013°44'0 0.0
2018-Feb-21 12:28N 45°33' E 013°44'0 0.0
2018-Feb-21 11:58N 45°33' E 013°44'0 0.0
2018-Feb-21 11:28N 45°33' E 013°44'0 0.0
2018-Feb-21 10:58N 45°33' E 013°44'0 0.0
2018-Feb-21 10:28N 45°33' E 013°44'0 0.0
2018-Feb-21 10:00N 45°33' E 013°44'0 0.0
2018-Feb-21 09:24N 45°33' E 013°44'0 0.0
2018-Feb-21 09:00N 45°33' E 013°44'0 0.0
2018-Feb-21 08:30N 45°33' E 013°44'0 0.0
2018-Feb-21 07:56N 45°33' E 013°44'0 0.0
2018-Feb-21 07:29N 45°33' E 013°44'0 0.0
2018-Feb-21 06:59N 45°33' E 013°44'0 0.0
2018-Feb-21 06:29N 45°33' E 013°44'0 0.0
2018-Feb-21 05:59N 45°33' E 013°44'0 0.0
2018-Feb-21 05:28N 45°33' E 013°44'0 0.0
2018-Feb-21 04:55N 45°33' E 013°44'0 0.0
2018-Feb-21 04:28N 45°33' E 013°44'0 0.0
2018-Feb-21 03:58N 45°33' E 013°44'0 0.0
2018-Feb-21 03:28N 45°33' E 013°44'0 0.0
2018-Feb-21 02:58N 45°33' E 013°44'0 0.0
2018-Feb-21 02:25N 45°33' E 013°44'0 0.0
2018-Feb-21 01:58N 45°33' E 013°44'0 0.0
2018-Feb-21 01:28N 45°33' E 013°44'0 0.0
2018-Feb-21 00:57N 45°33' E 013°44'0 0.0
2018-Feb-21 00:30N 45°33' E 013°44'0 0.0
2018-Feb-21 00:00N 45°33' E 013°44'0 0.0
2018-Feb-20 23:27N 45°33' E 013°44'0 0.0
2018-Feb-20 23:00N 45°33' E 013°44'0 0.0
2018-Feb-20 22:29N 45°33' E 013°44'0 0.0
2018-Feb-20 21:59N 45°33' E 013°44'0 0.0
2018-Feb-20 21:29N 45°33' E 013°44'0 0.0
2018-Feb-20 20:59N 45°33' E 013°44'0 0.0
2018-Feb-20 20:30N 45°33' E 013°44'2 4.4
2018-Feb-20 20:00N 45°34' E 013°41'714.0
2018-Feb-20 19:30N 45°34' E 013°31'815.3
2018-Feb-20 19:00N 45°30' E 013°22'714.3
2018-Feb-20 18:30N 45°25' E 013°15'713.1
2018-Feb-20 18:00N 45°19' E 013°11'714.5
2018-Feb-20 17:30N 45°12' E 013°14'714.8
2018-Feb-20 17:00N 45°06' E 013°18'714.3
2018-Feb-20 16:31N 44°59' E 013°22'714.3
2018-Feb-20 16:01N 44°54' E 013°29'714.7
2018-Feb-20 15:30N 44°49' E 013°37'714.6
2018-Feb-20 15:00N 44°45' E 013°45'712.0
2018-Feb-20 14:23N 44°42' E 013°55'512.7
2018-Feb-20 14:00N 44°43' E 014°01'611.5
2018-Feb-20 13:30N 44°47' E 014°07'912.9
2018-Feb-20 12:48N 44°56' E 014°12'1713.1
2018-Feb-20 11:32N 45°12' E 014°18'23 1.2
2018-Feb-19 16:48N 44°50' E 014°08'413.8
2018-Feb-19 16:30N 44°46' E 014°06'713.4
2018-Feb-19 15:59N 44°39' E 014°03'613.4
2018-Feb-19 15:30N 44°33' E 014°03'33913.3
2018-Feb-18 14:04N 39°59' E 018°31'112.6
2018-Feb-18 14:00N 39°58' E 018°31'612.7
2018-Feb-18 13:30N 39°52' E 018°28'10313.4
2018-Feb-18 05:49N 38°38' E 016°55'6613.5
2018-Feb-18 00:57N 37°47' E 016°02'714.2
2018-Feb-18 00:28N 37°41' E 015°57'814.3
2018-Feb-17 23:54N 37°34' E 015°52'513.7
2018-Feb-17 23:30N 37°29' E 015°49'713.6
2018-Feb-17 23:00N 37°23' E 015°45'9313.7
2018-Feb-17 16:11N 36°03' E 014°45'313.6
2018-Feb-17 15:59N 36°01' E 014°43'713.9
2018-Feb-17 15:29N 35°55' E 014°39'812.6
2018-Feb-17 14:53N 35°48' E 014°34'1 0.0
2018-Feb-16 18:06N 35°49' E 014°34'1 6.9
2018-Feb-16 17:59N 35°48' E 014°34'0 0.4
2018-Feb-16 17:26N 35°48' E 014°35'2 4.7
2018-Feb-16 17:00N 35°47' E 014°37'1 1.5
2018-Feb-16 16:24N 35°48' E 014°36'0 0.4
2018-Feb-16 16:00N 35°48' E 014°36'1 1.2
2018-Feb-16 15:22N 35°48' E 014°37'2 6.5
2018-Feb-16 15:00N 35°49' E 014°40'5 9.4
2018-Feb-16 14:30N 35°50' E 014°45'0 0.0
2018-Feb-16 05:22N 35°50' E 014°45'0 0.0
2018-Feb-16 04:45N 35°50' E 014°45'0 0.0
2018-Feb-16 04:03N 35°50' E 014°45'0 0.0
2018-Feb-16 03:39N 35°50' E 014°45'0 0.0
2018-Feb-16 03:27N 35°50' E 014°45'0 0.0
2018-Feb-16 02:51N 35°50' E 014°45'0 0.0
2018-Feb-16 02:26N 35°50' E 014°45'0 0.0
2018-Feb-16 01:56N 35°50' E 014°45'0 0.1
2018-Feb-16 01:29N 35°50' E 014°45'0 0.0
2018-Feb-16 00:44N 35°50' E 014°45'0 0.0
2018-Feb-16 00:26N 35°50' E 014°45'0 0.0
2018-Feb-15 23:58N 35°50' E 014°45'0 0.0
2018-Feb-15 23:26N 35°50' E 014°45'0 0.0
2018-Feb-15 21:46N 35°50' E 014°45'0 0.0
2018-Feb-15 21:18N 35°50' E 014°45'0 0.1
2018-Feb-15 21:00N 35°50' E 014°45'0 0.0
2018-Feb-15 20:00N 35°50' E 014°46'0 0.0
2018-Feb-15 19:24N 35°50' E 014°45'0 0.0
2018-Feb-15 18:59N 35°50' E 014°45'0 0.0
2018-Feb-15 17:35N 35°50' E 014°45'0 0.0
2018-Feb-15 17:23N 35°50' E 014°45'0 0.0
2018-Feb-15 16:50N 35°50' E 014°46'0 0.0
2018-Feb-15 16:22N 35°50' E 014°46'0 0.0
2018-Feb-15 15:58N 35°50' E 014°46'0 0.0
2018-Feb-15 15:28N 35°50' E 014°46'0 0.0
2018-Feb-15 14:52N 35°50' E 014°46'0 0.0
2018-Feb-15 14:25N 35°50' E 014°46'0 0.0
2018-Feb-15 13:51N 35°50' E 014°46'0 0.1
2018-Feb-15 13:27N 35°50' E 014°45'0 0.0
2018-Feb-15 12:57N 35°50' E 014°45'  

Dump ship's entire track history